createdAt,value
2023-02-19T00:00:03.013Z,12.30
2023-02-19T00:02:32.641Z,12.20
2023-02-19T00:05:00.941Z,12.20
2023-02-19T00:07:29.278Z,12.20
2023-02-19T00:09:57.480Z,12.20
2023-02-19T00:12:25.955Z,12.20
2023-02-19T00:14:55.939Z,12.20
2023-02-19T00:17:24.299Z,12.20
2023-02-19T00:19:53.954Z,12.20
2023-02-19T00:22:22.300Z,12.20
2023-02-19T00:24:50.908Z,12.20
2023-02-19T00:27:22.136Z,12.20
2023-02-19T00:29:50.531Z,12.20
2023-02-19T00:32:18.912Z,12.20
2023-02-19T00:34:47.252Z,12.20
2023-02-19T00:37:17.035Z,12.20
2023-02-19T00:39:45.283Z,12.20
2023-02-19T00:42:13.562Z,12.20
2023-02-19T00:44:41.846Z,12.20
2023-02-19T00:47:10.109Z,12.20
2023-02-19T00:49:38.356Z,12.20
2023-02-19T00:52:06.734Z,12.20
2023-02-19T00:54:36.431Z,12.20
2023-02-19T00:57:06.552Z,12.20
2023-02-19T00:59:36.888Z,12.20
2023-02-19T01:02:06.309Z,12.20
2023-02-19T01:04:34.529Z,12.20
2023-02-19T01:07:03.027Z,12.20
2023-02-19T01:09:31.275Z,12.20
2023-02-19T01:12:00.911Z,12.20
2023-02-19T01:14:29.403Z,12.20
2023-02-19T01:16:57.711Z,12.20
2023-02-19T01:19:26.056Z,12.20
2023-02-19T01:21:54.358Z,12.20
2023-02-19T01:24:22.563Z,12.20
2023-02-19T01:26:50.924Z,12.20
2023-02-19T01:29:23.758Z,12.20
2023-02-19T01:31:52.164Z,12.30
2023-02-19T01:34:20.455Z,12.30
2023-02-19T01:36:48.689Z,12.30
2023-02-19T01:39:16.982Z,12.30
2023-02-19T01:41:45.202Z,12.30
2023-02-19T01:44:46.799Z,12.30
2023-02-19T01:47:19.771Z,12.30
2023-02-19T01:49:51.165Z,12.30
2023-02-19T01:52:23.289Z,12.30
2023-02-19T01:54:51.974Z,12.30
2023-02-19T01:57:23.911Z,12.30
2023-02-19T01:59:57.334Z,12.30
2023-02-19T02:02:28.555Z,12.30
2023-02-19T02:05:00.249Z,12.30
2023-02-19T02:07:45.568Z,12.30
2023-02-19T02:10:23.071Z,12.30
2023-02-19T02:12:52.683Z,12.30
2023-02-19T02:15:22.406Z,12.30
2023-02-19T02:17:58.035Z,12.30
2023-02-19T02:20:38.830Z,12.30
2023-02-19T02:23:14.126Z,12.30
2023-02-19T02:26:00.068Z,12.30
2023-02-19T02:28:47.356Z,12.30
2023-02-19T02:31:19.631Z,12.30
2023-02-19T02:33:58.963Z,12.30
2023-02-19T02:36:32.440Z,12.30
2023-02-19T02:39:03.481Z,12.30
2023-02-19T02:41:33.313Z,12.30
2023-02-19T02:44:01.585Z,12.30
2023-02-19T02:46:36.262Z,12.30
2023-02-19T02:49:09.673Z,12.30
2023-02-19T02:51:41.756Z,12.30
2023-02-19T02:54:33.515Z,12.30
2023-02-19T02:57:02.420Z,12.30
2023-02-19T02:59:34.222Z,12.40
2023-02-19T03:02:11.458Z,12.30
2023-02-19T03:05:06.500Z,12.30
2023-02-19T03:07:39.946Z,12.30
2023-02-19T03:10:26.655Z,12.40
2023-02-19T03:13:15.437Z,12.30
2023-02-19T03:16:17.422Z,12.40
2023-02-19T03:19:07.980Z,12.40
2023-02-19T03:21:39.302Z,12.40
2023-02-19T03:24:27.167Z,12.40
2023-02-19T03:26:57.014Z,12.40
2023-02-19T03:29:27.497Z,12.40
2023-02-19T03:31:58.713Z,12.40
2023-02-19T03:34:33.826Z,12.40
2023-02-19T03:37:07.690Z,12.40
2023-02-19T03:39:44.324Z,12.40
2023-02-19T03:42:22.457Z,12.40
2023-02-19T03:45:07.887Z,12.40
2023-02-19T03:47:44.787Z,12.30
2023-02-19T03:50:19.735Z,12.30
2023-02-19T03:52:59.056Z,12.30
2023-02-19T03:55:33.211Z,12.30
2023-02-19T03:58:09.859Z,12.30
2023-02-19T04:00:42.925Z,12.30
2023-02-19T04:03:18.978Z,12.30
2023-02-19T04:05:54.776Z,12.30
2023-02-19T04:08:25.538Z,12.30
2023-02-19T04:10:55.941Z,12.30
2023-02-19T04:13:26.706Z,12.30
2023-02-19T04:15:58.907Z,12.30
2023-02-19T04:18:31.726Z,12.30
2023-02-19T04:21:02.076Z,12.30
2023-02-19T04:23:34.677Z,12.30
2023-02-19T04:26:04.275Z,12.30
2023-02-19T04:28:33.041Z,12.30
2023-02-19T04:31:01.443Z,12.30
2023-02-19T04:33:29.791Z,12.30
2023-02-19T04:35:58.134Z,12.30
2023-02-19T04:38:27.804Z,12.30
2023-02-19T04:40:56.092Z,12.30
2023-02-19T04:43:24.293Z,12.30
2023-02-19T04:45:52.555Z,12.30
2023-02-19T04:48:20.929Z,12.30
2023-02-19T04:50:49.167Z,12.30
2023-02-19T04:53:17.468Z,12.30
2023-02-19T04:55:48.159Z,12.30
2023-02-19T04:58:16.447Z,12.30
2023-02-19T05:00:44.681Z,12.30
2023-02-19T05:03:12.919Z,12.30
2023-02-19T05:05:41.144Z,12.40
2023-02-19T05:08:12.241Z,12.40
2023-02-19T05:10:46.005Z,12.30
2023-02-19T05:13:15.755Z,12.40
2023-02-19T05:15:44.272Z,12.40
2023-02-19T05:18:12.510Z,12.40
2023-02-19T05:20:42.814Z,12.40
2023-02-19T05:23:11.053Z,12.40
2023-02-19T05:25:39.341Z,12.40
2023-02-19T05:28:18.063Z,12.40
2023-02-19T05:30:49.309Z,12.50
2023-02-19T05:33:19.286Z,12.50
2023-02-19T05:35:49.680Z,12.50
2023-02-19T05:38:21.688Z,12.40
2023-02-19T05:40:50.582Z,12.50
2023-02-19T05:43:19.071Z,12.50
2023-02-19T05:45:48.674Z,12.50
2023-02-19T05:48:17.437Z,12.40
2023-02-19T05:50:45.711Z,12.40
2023-02-19T05:53:14.171Z,12.40
2023-02-19T05:55:42.424Z,12.40
2023-02-19T05:58:10.726Z,12.40
2023-02-19T06:00:38.952Z,12.40
2023-02-19T06:03:08.570Z,12.40
2023-02-19T06:05:36.865Z,12.40
2023-02-19T06:08:05.445Z,12.40
2023-02-19T06:10:33.836Z,12.40
2023-02-19T06:13:02.078Z,12.30
2023-02-19T06:15:30.324Z,12.40
2023-02-19T06:17:58.622Z,12.40
2023-02-19T06:20:28.493Z,12.40
2023-02-19T06:22:59.698Z,12.40
2023-02-19T06:25:27.934Z,12.50
2023-02-19T06:27:56.232Z,12.40
2023-02-19T06:30:24.561Z,12.50
2023-02-19T06:32:54.846Z,12.50
2023-02-19T06:35:23.420Z,12.50
2023-02-19T06:37:53.106Z,12.50
2023-02-19T06:40:21.356Z,12.50
2023-02-19T06:42:49.792Z,12.50
2023-02-19T06:45:18.073Z,12.50
2023-02-19T06:47:46.293Z,12.50
2023-02-19T06:50:14.497Z,12.50
2023-02-19T06:52:42.763Z,12.50
2023-02-19T06:55:12.709Z,12.50
2023-02-19T06:57:41.029Z,12.50
2023-02-19T07:00:11.154Z,12.50
2023-02-19T07:02:39.400Z,12.60
2023-02-19T07:05:07.957Z,12.60
2023-02-19T07:07:36.223Z,12.60
2023-02-19T07:10:05.143Z,12.60
2023-02-19T07:12:34.776Z,12.60
2023-02-19T07:15:03.910Z,12.60
2023-02-19T07:17:32.786Z,12.70
2023-02-19T07:20:01.012Z,12.70
2023-02-19T07:22:29.301Z,12.60
2023-02-19T07:24:57.621Z,12.70
2023-02-19T07:27:25.803Z,12.70
2023-02-19T07:29:55.490Z,12.60
2023-02-19T07:32:23.769Z,12.60
2023-02-19T07:34:52.007Z,12.60
2023-02-19T07:37:20.469Z,12.60
2023-02-19T07:39:48.737Z,12.60
2023-02-19T07:42:17.022Z,12.60
2023-02-19T07:44:45.220Z,12.60
2023-02-19T07:47:14.861Z,12.60
2023-02-19T07:49:43.112Z,12.60
2023-02-19T07:52:11.362Z,12.60
2023-02-19T07:54:39.569Z,12.60
2023-02-19T07:57:07.792Z,12.60
2023-02-19T07:59:36.606Z,12.60
2023-02-19T08:02:22.122Z,12.70
2023-02-19T08:04:51.863Z,12.70
2023-02-19T08:07:20.154Z,12.70
2023-02-19T08:10:08.968Z,12.70
2023-02-19T08:12:51.018Z,12.70
2023-02-19T08:15:22.596Z,12.80
2023-02-19T08:17:50.839Z,12.80
2023-02-19T08:20:20.725Z,12.90
2023-02-19T08:22:48.960Z,12.80
2023-02-19T08:25:17.481Z,12.90
2023-02-19T08:27:46.029Z,12.90
2023-02-19T08:30:14.647Z,12.90
2023-02-19T08:32:42.894Z,12.90
2023-02-19T08:35:12.991Z,12.90
2023-02-19T08:37:42.622Z,13.00
2023-02-19T08:40:13.835Z,13.00
2023-02-19T08:42:42.189Z,13.00
2023-02-19T08:45:10.975Z,13.00
2023-02-19T08:47:39.311Z,13.00
2023-02-19T08:50:09.093Z,13.00
2023-02-19T08:52:37.580Z,13.00
2023-02-19T08:55:08.260Z,13.00
2023-02-19T08:57:38.629Z,13.00
2023-02-19T09:00:08.955Z,13.10
2023-02-19T09:02:37.267Z,13.00
2023-02-19T09:05:06.204Z,13.00
2023-02-19T09:07:34.965Z,13.10
2023-02-19T09:10:03.287Z,13.00
2023-02-19T09:12:33.918Z,13.00
2023-02-19T09:15:02.720Z,13.00
2023-02-19T09:17:31.066Z,13.00
2023-02-19T09:20:00.288Z,13.00
2023-02-19T09:22:28.562Z,13.00
2023-02-19T09:24:56.927Z,13.00
2023-02-19T09:27:25.231Z,13.00
2023-02-19T09:29:55.831Z,12.90
2023-02-19T09:32:24.374Z,12.90
2023-02-19T09:34:52.628Z,12.90
2023-02-19T09:37:20.890Z,12.90
2023-02-19T09:39:49.113Z,12.90
2023-02-19T09:42:19.969Z,12.90
2023-02-19T09:44:51.846Z,12.90
2023-02-19T09:47:24.306Z,12.90
2023-02-19T09:49:58.216Z,13.00
2023-02-19T09:52:36.486Z,13.00
2023-02-19T09:55:15.670Z,13.10
2023-02-19T09:57:46.831Z,13.00
2023-02-19T10:03:30.810Z,13.00
2023-02-19T10:06:02.223Z,13.00
2023-02-19T10:08:34.856Z,13.10
2023-02-19T10:11:07.450Z,13.10
2023-02-19T10:13:39.203Z,13.10
2023-02-19T10:16:16.095Z,13.20
2023-02-19T10:18:47.123Z,13.30
2023-02-19T10:21:36.428Z,13.40
2023-02-19T10:24:23.150Z,13.50
2023-02-19T10:26:52.112Z,13.60
2023-02-19T10:29:21.835Z,13.70
2023-02-19T10:32:20.701Z,13.80
2023-02-19T10:35:10.558Z,13.80
2023-02-19T10:37:53.521Z,13.80
2023-02-19T10:40:23.954Z,13.90
2023-02-19T10:42:59.426Z,13.80
2023-02-19T10:45:40.588Z,13.90
2023-02-19T10:48:25.156Z,13.90
2023-02-19T10:51:04.945Z,13.90
2023-02-19T10:53:47.395Z,13.90
2023-02-19T10:56:21.076Z,13.90
2023-02-19T10:58:49.452Z,13.90
2023-02-19T11:01:22.420Z,13.90
2023-02-19T11:03:51.984Z,14.00
2023-02-19T11:06:26.893Z,14.00
2023-02-19T11:08:58.452Z,14.00
2023-02-19T11:11:33.257Z,14.10
2023-02-19T11:14:06.620Z,14.10
2023-02-19T11:16:47.727Z,14.10
2023-02-19T11:19:31.027Z,14.10
2023-02-19T11:22:02.744Z,14.20
2023-02-19T11:24:41.286Z,14.20
2023-02-19T11:27:19.201Z,14.20
2023-02-19T11:29:51.337Z,14.20
2023-02-19T11:32:29.795Z,14.20
2023-02-19T11:35:19.549Z,14.20
2023-02-19T11:38:00.108Z,14.20
2023-02-19T11:40:42.137Z,14.20
2023-02-19T11:43:27.544Z,14.30
2023-02-19T11:46:03.933Z,14.40
2023-02-19T11:49:01.647Z,14.60
2023-02-19T11:51:42.569Z,14.70
2023-02-19T11:54:28.537Z,14.80
2023-02-19T11:57:04.195Z,14.90
2023-02-19T11:59:49.553Z,15.00
2023-02-19T12:02:49.602Z,15.10
2023-02-19T12:05:34.321Z,15.20
2023-02-19T12:08:46.511Z,15.20
2023-02-19T12:11:39.394Z,15.20
2023-02-19T12:14:44.257Z,15.10
2023-02-19T12:17:22.698Z,15.10
2023-02-19T12:20:23.756Z,15.10
2023-02-19T12:23:01.619Z,15.00
2023-02-19T12:25:45.774Z,15.00
2023-02-19T12:28:40.742Z,15.00
2023-02-19T12:31:35.325Z,15.10
2023-02-19T12:34:25.527Z,15.10
2023-02-19T12:37:05.275Z,15.20
2023-02-19T12:39:44.266Z,15.10
2023-02-19T12:42:21.766Z,15.20
2023-02-19T12:44:57.913Z,15.20
2023-02-19T12:47:29.909Z,15.20
2023-02-19T12:50:05.314Z,15.20
2023-02-19T12:52:40.327Z,15.20
2023-02-19T12:55:20.762Z,15.20
2023-02-19T12:57:49.902Z,15.10
2023-02-19T13:00:32.599Z,15.00
2023-02-19T13:03:06.283Z,15.10
2023-02-19T13:05:43.311Z,15.10
2023-02-19T13:08:17.545Z,15.10
2023-02-19T13:10:56.373Z,15.10
2023-02-19T13:13:30.146Z,15.10
2023-02-19T13:16:03.910Z,15.00
2023-02-19T13:18:38.408Z,14.90
2023-02-19T13:21:07.728Z,14.90
2023-02-19T13:23:56.593Z,14.80
2023-02-19T13:26:54.408Z,14.70
2023-02-19T13:29:40.696Z,14.60
2023-02-19T13:32:27.133Z,14.50
2023-02-19T13:35:11.642Z,14.50
2023-02-19T13:37:40.129Z,14.40
2023-02-19T13:40:22.687Z,14.40
2023-02-19T13:42:55.762Z,14.30
2023-02-19T13:45:28.292Z,14.20
2023-02-19T13:48:15.571Z,14.20
2023-02-19T13:50:44.070Z,14.10
2023-02-19T13:53:49.411Z,14.00
2023-02-19T13:56:40.614Z,14.00
2023-02-19T13:59:36.966Z,14.00
2023-02-19T14:02:35.400Z,14.00
2023-02-19T14:05:20.805Z,14.10
2023-02-19T14:08:01.218Z,14.20
2023-02-19T14:11:02.531Z,14.30
2023-02-19T14:14:09.984Z,14.40
2023-02-19T14:17:06.047Z,14.50
2023-02-19T14:20:22.413Z,14.50
2023-02-19T14:23:20.859Z,14.60
2023-02-19T14:26:00.194Z,14.60
2023-02-19T14:28:39.025Z,14.70
2023-02-19T14:31:29.297Z,14.60
2023-02-19T14:34:01.514Z,14.70
2023-02-19T14:36:48.611Z,14.60
2023-02-19T14:39:21.135Z,14.60
2023-02-19T14:41:52.068Z,14.60
2023-02-19T14:44:25.014Z,14.60
2023-02-19T14:46:58.463Z,14.60
2023-02-19T14:49:31.996Z,14.60
2023-02-19T14:52:01.678Z,14.50
2023-02-19T14:54:42.863Z,14.50
2023-02-19T14:57:19.285Z,14.40
2023-02-19T14:59:55.508Z,14.40
2023-02-19T15:02:26.155Z,14.40
2023-02-19T15:04:55.179Z,14.40
2023-02-19T15:07:26.021Z,14.30
2023-02-19T15:10:03.675Z,14.30
2023-02-19T15:12:36.308Z,14.30
2023-02-19T15:15:08.360Z,14.20
2023-02-19T15:17:41.742Z,14.20
2023-02-19T15:20:13.155Z,14.20
2023-02-19T15:22:42.751Z,14.10
2023-02-19T15:25:19.173Z,14.10
2023-02-19T15:27:47.650Z,14.10
2023-02-19T15:30:22.543Z,14.00
2023-02-19T15:32:56.125Z,14.00
2023-02-19T15:35:26.588Z,13.90
2023-02-19T15:37:56.300Z,13.90
2023-02-19T15:40:30.287Z,13.80
2023-02-19T15:43:00.285Z,13.80
2023-02-19T15:45:32.835Z,13.80
2023-02-19T15:48:06.020Z,13.70
2023-02-19T15:50:35.352Z,13.70
2023-02-19T15:53:09.352Z,13.70
2023-02-19T15:55:44.892Z,13.70
2023-02-19T15:58:20.748Z,13.70
2023-02-19T16:00:52.287Z,13.50
2023-02-19T16:03:22.035Z,13.50
2023-02-19T16:06:00.551Z,13.50
2023-02-19T16:08:31.711Z,13.50
2023-02-19T16:11:03.062Z,13.50
2023-02-19T16:13:33.074Z,13.40
2023-02-19T16:16:07.471Z,13.40
2023-02-19T16:18:36.438Z,13.40
2023-02-19T16:21:09.944Z,13.40
2023-02-19T16:23:43.450Z,13.40
2023-02-19T16:26:13.149Z,13.30
2023-02-19T16:28:43.129Z,13.30
2023-02-19T16:31:13.770Z,13.30
2023-02-19T16:33:43.462Z,13.30
2023-02-19T16:36:32.293Z,13.20
2023-02-19T16:39:18.021Z,13.10
2023-02-19T16:42:20.674Z,13.20
2023-02-19T16:44:49.230Z,13.10
2023-02-19T16:47:35.977Z,13.10
2023-02-19T16:50:08.916Z,13.10
2023-02-19T16:52:39.263Z,13.00
2023-02-19T16:55:14.557Z,13.00
2023-02-19T16:57:44.414Z,13.00
2023-02-19T17:00:18.159Z,13.00
2023-02-19T17:02:48.348Z,13.00
2023-02-19T17:05:17.488Z,12.90
2023-02-19T17:07:45.745Z,12.90
2023-02-19T17:10:20.107Z,12.90
2023-02-19T17:12:49.728Z,12.90
2023-02-19T17:15:18.065Z,12.90
2023-02-19T17:17:46.482Z,12.90
2023-02-19T17:20:24.070Z,12.90
2023-02-19T17:22:52.411Z,12.80
2023-02-19T17:25:20.737Z,12.80
2023-02-19T17:27:50.569Z,12.80
2023-02-19T17:30:21.940Z,12.80
2023-02-19T17:32:50.230Z,12.80
2023-02-19T17:35:21.379Z,12.80
2023-02-19T17:37:51.314Z,12.80
2023-02-19T17:40:32.853Z,12.80
2023-02-19T17:43:03.258Z,12.80
2023-02-19T17:45:31.852Z,12.80
2023-02-19T17:48:00.729Z,12.80
2023-02-19T17:50:30.609Z,12.80
2023-02-19T17:52:59.337Z,12.80
2023-02-19T17:55:27.935Z,12.80
2023-02-19T17:57:56.193Z,12.80
2023-02-19T18:00:28.414Z,12.80
2023-02-19T18:02:56.981Z,12.70
2023-02-19T18:05:25.586Z,12.70
2023-02-19T18:07:53.868Z,12.70
2023-02-19T18:10:24.807Z,12.80
2023-02-19T18:12:53.236Z,12.70
2023-02-19T18:15:24.236Z,12.70
2023-02-19T18:17:54.213Z,12.70
2023-02-19T18:20:24.474Z,12.70
2023-02-19T18:22:52.857Z,12.70
2023-02-19T18:25:21.620Z,12.80
2023-02-19T18:27:50.570Z,12.80
2023-02-19T18:30:20.850Z,12.80
2023-02-19T18:32:49.485Z,12.80
2023-02-19T18:35:21.513Z,12.80
2023-02-19T18:37:51.649Z,12.80
2023-02-19T18:40:20.496Z,12.80
2023-02-19T18:42:48.795Z,12.80
2023-02-19T18:45:17.245Z,12.70
2023-02-19T18:47:48.025Z,12.70
2023-02-19T18:50:16.949Z,12.70
2023-02-19T18:52:47.138Z,12.70
2023-02-19T18:55:15.486Z,12.70
2023-02-19T18:57:44.340Z,12.70
2023-02-19T19:00:17.127Z,12.60
2023-02-19T19:02:49.674Z,12.60
2023-02-19T19:05:22.715Z,12.60
2023-02-19T19:07:53.344Z,12.60
2023-02-19T19:10:22.403Z,12.60
2023-02-19T19:12:51.335Z,12.50
2023-02-19T19:15:19.967Z,12.50
2023-02-19T19:17:49.399Z,12.50
2023-02-19T19:20:24.332Z,12.50
2023-02-19T19:22:54.510Z,12.50
2023-02-19T19:25:23.975Z,12.50
2023-02-19T19:27:55.722Z,12.50
2023-02-19T19:30:24.532Z,12.50
2023-02-19T19:32:54.040Z,12.40
2023-02-19T19:35:23.378Z,12.40
2023-02-19T19:37:52.993Z,12.40
2023-02-19T19:40:21.759Z,12.40
2023-02-19T19:42:52.301Z,12.40
2023-02-19T19:45:20.734Z,12.40
2023-02-19T19:47:49.867Z,12.40
2023-02-19T19:50:19.368Z,12.30
2023-02-19T19:52:47.644Z,12.30
2023-02-19T19:55:17.680Z,12.30
2023-02-19T19:57:46.092Z,12.30
2023-02-19T20:00:17.730Z,12.30
2023-02-19T20:02:46.649Z,12.30
2023-02-19T20:05:17.017Z,12.30
2023-02-19T20:07:45.815Z,12.20
2023-02-19T20:10:16.028Z,12.20
2023-02-19T20:12:45.774Z,12.20
2023-02-19T20:15:15.081Z,12.20
2023-02-19T20:17:43.300Z,12.20
2023-02-19T20:20:12.268Z,12.20
2023-02-19T20:22:40.519Z,12.20
2023-02-19T20:25:09.105Z,12.10
2023-02-19T20:27:37.334Z,12.10
2023-02-19T20:30:10.934Z,12.10
2023-02-19T20:32:39.514Z,12.10
2023-02-19T20:35:08.257Z,12.10
2023-02-19T20:37:39.148Z,12.10
2023-02-19T20:40:08.847Z,12.10
2023-02-19T20:42:37.092Z,12.20
2023-02-19T20:45:07.510Z,12.20
2023-02-19T20:47:36.354Z,12.10
2023-02-19T20:50:04.644Z,12.10
2023-02-19T20:52:32.925Z,12.10
2023-02-19T20:55:01.234Z,12.10
2023-02-19T20:57:29.521Z,12.10
2023-02-19T20:59:57.805Z,12.10
2023-02-19T21:02:29.453Z,12.10
2023-02-19T21:04:58.377Z,12.10
2023-02-19T21:07:27.115Z,12.10
2023-02-19T21:09:55.786Z,12.10
2023-02-19T21:12:24.285Z,12.10
2023-02-19T21:14:52.570Z,12.10
2023-02-19T21:17:20.862Z,12.10
2023-02-19T21:19:50.499Z,12.10
2023-02-19T21:22:18.953Z,12.10
2023-02-19T21:24:49.609Z,12.10
2023-02-19T21:27:17.895Z,12.00
2023-02-19T21:29:46.811Z,12.00
2023-02-19T21:32:15.287Z,12.00
2023-02-19T21:34:43.847Z,12.10
2023-02-19T21:37:13.668Z,12.00
2023-02-19T21:39:42.836Z,12.00
2023-02-19T21:42:11.255Z,12.10
2023-02-19T21:44:40.818Z,12.00
2023-02-19T21:47:11.022Z,12.00
2023-02-19T21:49:41.791Z,12.00
2023-02-19T21:52:10.298Z,12.00
2023-02-19T21:54:39.963Z,12.00
2023-02-19T21:57:09.416Z,12.00
2023-02-19T21:59:37.685Z,12.00
2023-02-19T22:02:05.976Z,12.00
2023-02-19T22:04:34.235Z,12.00
2023-02-19T22:07:02.499Z,11.90
2023-02-19T22:09:30.789Z,11.90
2023-02-19T22:12:00.493Z,11.90
2023-02-19T22:14:28.742Z,11.90
2023-02-19T22:16:57.014Z,11.90
2023-02-19T22:19:25.286Z,11.80
2023-02-19T22:21:53.536Z,11.80
2023-02-19T22:24:23.628Z,11.80
2023-02-19T22:26:56.250Z,11.70
2023-02-19T22:29:26.374Z,11.70
2023-02-19T22:31:54.682Z,11.70
2023-02-19T22:34:23.061Z,11.70
2023-02-19T22:36:51.283Z,11.70
2023-02-19T22:39:21.590Z,11.70
2023-02-19T22:41:50.435Z,11.70
2023-02-19T22:44:19.260Z,11.70
2023-02-19T22:46:50.952Z,11.70
2023-02-19T22:49:22.396Z,11.60
2023-02-19T22:51:57.482Z,11.60
2023-02-19T22:54:27.134Z,11.60
2023-02-19T22:56:56.130Z,11.60
2023-02-19T22:59:24.569Z,11.60
2023-02-19T23:01:55.005Z,11.50
2023-02-19T23:04:24.776Z,11.50
2023-02-19T23:06:53.341Z,11.50
2023-02-19T23:09:24.318Z,11.50
2023-02-19T23:11:53.312Z,11.50
2023-02-19T23:14:24.392Z,11.50
2023-02-19T23:16:54.047Z,11.50
2023-02-19T23:19:22.422Z,11.50
2023-02-19T23:21:50.868Z,11.50
2023-02-19T23:24:19.448Z,11.50
2023-02-19T23:26:48.990Z,11.50
2023-02-19T23:29:19.179Z,11.50
2023-02-19T23:31:47.988Z,11.40
2023-02-19T23:34:19.470Z,11.50
2023-02-19T23:36:49.649Z,11.40
2023-02-19T23:39:21.304Z,11.40
2023-02-19T23:41:50.991Z,11.40
2023-02-19T23:44:20.056Z,11.40
2023-02-19T23:46:48.581Z,11.40
2023-02-19T23:49:19.094Z,11.40
2023-02-19T23:51:47.403Z,11.40
2023-02-19T23:54:15.721Z,11.40
2023-02-19T23:56:43.945Z,11.30
2023-02-19T23:59:12.234Z,11.30
